Milo, Oklahoma
Current Conditions -  °F | °C
As of 7:55 PM on Friday 21 Nov 2014 (Local Time) from K1F0 Reporting Station
Overcast Overcast  
Wind Chill: 61°   Ceiling: 700
Heat Index: 61°   Visibility: 7mi
Dew Point: 59°   Wind: 9mph
Humidity: 94%   Direction: 160°SSE
Pressure: 30.07"   Gusts: NA
Location:  34.2137°N, 97.1822°W
Report Text: K1F0 220155Z AUTO 16008KT 7SM OVC007 16/15 A3007 RMK AO2
Loading
Personal Weather Stations






























Interactive Weather Map New forecast layout! Learn more

10-Day Weather Forecast

Advertisements
Track Severe Weather on mobile